Time;durP1;ratioP1;P1;durP2;ratioP2;P2;SDS_P1;SDS_P2;PMS_P1;PMS_P2;Temp;Humidity;BMP_temperature;BMP_pressure;BME280_temperature;BME280_humidity;BME280_pressure;Samples;Min_cycle;Max_cycle;Signal;HPM_P1;HPM_P2
2022/04/26 03:37:39;;;;;;;20.13;12.63;;;7.90;99.90;;;;;;4904476;29;20200;-79
2022/04/26 03:44:22;;;;;;;18.93;12.13;;;7.90;99.90;;;;;;4993171;28;20200;-80
2022/04/26 03:51:22;;;;;;;17.20;11.30;;;7.90;99.90;;;;;;4953490;28;20252;-78
2022/04/26 04:06:37;;;;;;;17.53;10.97;;;7.90;99.90;;;;;;4972669;28;20184;-80
2022/04/26 04:23:03;;;;;;;;;;;;;;;;;;;;;
2022/04/26 04:30:06;;;;;;;19.50;11.67;;;7.80;99.90;;;;;;4857811;29;20185;-79
2022/04/26 04:46:01;;;;;;;19.27;11.30;;;7.90;99.90;;;;;;4787342;29;20189;-78
2022/04/26 04:48:49;;;;;;;23.23;12.90;;;8.00;99.90;;;;;;4775613;30;20238;-78
2022/04/26 04:51:48;;;;;;;21.83;12.37;;;7.90;99.90;;;;;;4803935;29;20253;-80
2022/04/26 04:54:36;;;;;;;;;;;;;;;;;;;;;
2022/04/26 04:57:54;;;;;;;21.53;12.93;;;7.70;99.90;;;;;;4825703;29;20720;-79
2022/04/26 05:00:37;;;;;;;23.10;13.27;;;7.60;99.90;;;;;;4824148;29;20210;-78
2022/04/26 05:15:10;;;;;;;18.93;11.03;;;7.80;99.90;;;;;;4858822;29;20207;-79
2022/04/26 05:19:09;;;;;;;16.77;10.93;;;7.70;99.90;;;;;;4895882;29;20224;-81
2022/04/26 05:26:20;;;;;;;15.70;10.30;;;7.90;99.90;;;;;;4916004;29;20198;-79
2022/04/26 05:33:25;;;;;;;14.40;9.00;;;8.20;99.90;;;;;;4903492;29;20304;-81
2022/04/26 05:44:45;;;;;;;15.87;9.70;;;8.20;99.90;;;;;;4788691;29;20208;-79
2022/04/26 05:47:48;;;;;;;14.37;9.53;;;8.40;99.90;;;;;;4814018;29;20214;-80
2022/04/26 05:50:47;;;;;;;;;;;;;;;;;;;;;
2022/04/26 05:53:47;;;;;;;15.20;9.90;;;8.40;99.90;;;;;;4882760;29;20209;-80
2022/04/26 06:00:50;;;;;;;13.67;8.90;;;8.30;99.90;;;;;;4753496;30;20208;-80
2022/04/26 06:08:21;;;;;;;13.83;9.03;;;8.30;99.90;;;;;;4777864;29;20282;-79
2022/04/26 06:11:23;;;;;;;13.87;8.70;;;8.40;99.90;;;;;;4773119;30;20212;-78
2022/04/26 06:14:07;;;;;;;12.73;8.50;;;8.30;99.90;;;;;;4797361;29;20243;-78
2022/04/26 06:21:28;;;;;;;;;;;;;;;;;;;;;
2022/04/26 06:25:28;;;;;;;15.77;9.53;;;8.10;99.90;;;;;;4877813;29;20208;-83
2022/04/26 06:45:13;;;;;;;14.97;10.00;;;8.20;99.90;;;;;;4298979;27;22083602;-84
2022/04/26 06:48:08;;;;;;;15.80;9.67;;;9.00;99.90;;;;;;5072581;28;20201;-82
2022/04/26 06:52:25;;;;;;;14.80;9.67;;;9.00;99.90;;;;;;5067742;28;20202;-80
2022/04/26 06:59:52;;;;;;;16.77;9.87;;;8.80;99.90;;;;;;5023107;28;20197;-78
2022/04/26 07:03:24;;;;;;;;;;;;;;;;;;;;;
2022/04/26 07:15:43;;;;;;;18.53;11.10;;;8.70;99.90;;;;;;4969082;28;20281;-82
2022/04/26 07:27:32;;;;;;;20.67;12.33;;;8.30;99.90;;;;;;4855246;29;20277;-79
2022/04/26 07:34:45;;;;;;;17.40;11.27;;;8.30;99.90;;;;;;4822139;29;20255;-82
2022/04/26 07:51:07;;;;;;;16.77;10.30;;;9.20;99.90;;;;;;4969694;28;20229;-78
2022/04/26 08:15:18;;;;;;;;;;;;;;;;;;;;;
2022/04/26 08:18:05;;;;;;;22.50;11.13;;;9.10;99.90;;;;;;4703908;30;20713;-80
2022/04/26 08:20:39;;;;;;;17.30;10.80;;;9.10;99.90;;;;;;4704621;30;20360;-80
2022/04/26 08:27:57;;;;;;;19.57;12.00;;;9.00;99.90;;;;;;4712003;30;20197;-79
2022/04/26 08:31:03;;;;;;;20.77;11.70;;;9.00;99.90;;;;;;4768082;30;20236;-75
2022/04/26 08:43:27;;;;;;;18.93;11.23;;;9.20;99.90;;;;;;4787902;29;20265;-79
2022/04/26 09:14:39;;;;;;;15.47;9.10;;;10.40;99.90;;;;;;4788206;30;20196;-76
2022/04/26 09:17:22;;;;;;;15.87;9.70;;;10.70;99.90;;;;;;4810248;29;20199;-76
2022/04/26 09:47:03;;;;;;;20.07;10.90;;;10.50;99.90;;;;;;4805604;29;20244;-75
2022/04/26 09:57:33;;;;;;;14.20;9.53;;;10.80;99.90;;;;;;4744716;30;20279;-76
2022/04/26 10:09:29;;;;;;;13.53;9.00;;;10.90;99.90;;;;;;4716829;30;20288;-77
2022/04/26 10:12:04;;;;;;;14.20;9.37;;;10.90;99.90;;;;;;4718788;30;20238;-76
2022/04/26 10:14:45;;;;;;;16.03;9.83;;;11.00;99.90;;;;;;4687744;30;20209;-77
2022/04/26 10:17:33;;;;;;;14.90;9.50;;;10.90;99.90;;;;;;4764919;29;20313;-76
2022/04/26 10:20:40;;;;;;;15.77;10.27;;;10.90;99.90;;;;;;4823365;29;20721;-78
2022/04/26 10:24:06;;;;;;;14.07;9.63;;;10.90;99.90;;;;;;4808077;29;20314;-76
2022/04/26 10:26:34;;;;;;;14.23;9.40;;;10.60;99.90;;;;;;4841383;29;20339;-75
2022/04/26 10:29:06;;;;;;;13.20;8.73;;;10.60;99.90;;;;;;4853430;29;20212;-75
2022/04/26 10:31:36;;;;;;;13.07;8.27;;;10.80;99.90;;;;;;4863005;29;20201;-76
2022/04/26 10:34:20;;;;;;;12.10;8.03;;;10.90;99.90;;;;;;4912259;29;20272;-75
2022/04/26 10:36:48;;;;;;;11.10;7.50;;;10.90;99.90;;;;;;4976303;28;20291;-76
2022/04/26 10:39:30;;;;;;;12.30;7.87;;;11.00;99.90;;;;;;4981765;28;20228;-75
2022/04/26 10:42:08;;;;;;;11.77;7.77;;;11.00;99.90;;;;;;4987550;28;20205;-76
2022/04/26 10:44:40;;;;;;;13.03;7.90;;;11.20;99.90;;;;;;4996024;28;20283;-75
2022/04/26 10:47:08;;;;;;;12.10;7.90;;;11.30;99.90;;;;;;4996386;28;20196;-76
2022/04/26 10:50:08;;;;;;;10.33;7.50;;;11.60;99.90;;;;;;4996099;28;20206;-75
2022/04/26 10:52:40;;;;;;;10.10;7.13;;;11.70;99.90;;;;;;4996221;28;20215;-75
2022/04/26 10:55:40;;;;;;;11.57;6.83;;;12.10;99.90;;;;;;4996071;28;20203;-75
2022/04/26 10:58:08;;;;;;;10.33;6.80;;;12.10;99.90;;;;;;4989659;28;20224;-76
2022/04/26 11:00:44;;;;;;;11.40;8.07;;;12.10;99.90;;;;;;4995988;28;20256;-77
2022/04/26 11:03:16;;;;;;;11.20;7.53;;;11.70;99.90;;;;;;4984899;28;20199;-77
2022/04/26 11:05:43;;;;;;;10.30;7.53;;;11.40;99.90;;;;;;5033231;28;20775;-78
2022/04/26 11:08:10;;;;;;;11.83;7.63;;;11.80;99.90;;;;;;5015906;28;20290;-77
2022/04/26 11:13:46;;;;;;;13.20;7.80;;;12.30;99.90;;;;;;5015559;28;20234;-78
2022/04/26 11:16:16;;;;;;;11.27;7.70;;;12.60;99.90;;;;;;5015464;28;20198;-82
2022/04/26 11:19:05;;;;;;;14.50;8.43;;;12.90;99.90;;;;;;5015779;28;20199;-77
2022/04/26 11:21:34;;;;;;;11.07;7.80;;;12.90;99.90;;;;;;5015303;28;20290;-79
2022/04/26 11:29:54;;;;;;;14.57;7.57;;;13.80;99.90;;;;;;5015297;28;20249;-83
2022/04/26 11:32:32;;;;;;;13.03;7.50;;;14.10;99.90;;;;;;5015538;28;20298;-81
2022/04/26 11:35:00;;;;;;;11.53;7.67;;;14.20;99.90;;;;;;5015294;28;20202;-79
2022/04/26 11:37:27;;;;;;;13.20;8.10;;;13.90;99.90;;;;;;5015550;28;20188;-82
2022/04/26 11:39:54;;;;;;;10.90;7.20;;;14.10;99.90;;;;;;5015361;28;20226;-77
2022/04/26 11:42:22;;;;;;;13.13;8.23;;;14.30;99.90;;;;;;5037744;28;20226;-81
2022/04/26 11:45:05;;;;;;;11.97;8.03;;;14.40;99.90;;;;;;5051734;28;20215;-76
2022/04/26 11:47:41;;;;;;;11.87;7.93;;;14.60;99.90;;;;;;5068465;28;20190;-76
2022/04/26 11:50:12;;;;;;;12.43;7.50;;;14.30;99.90;;;;;;5035329;28;20206;-76
2022/04/26 11:52:39;;;;;;;11.43;7.83;;;14.40;99.90;;;;;;5052650;28;20221;-77
2022/04/26 11:55:07;;;;;;;9.77;7.10;;;14.30;99.90;;;;;;5051754;28;20235;-76
2022/04/26 11:57:34;;;;;;;12.20;7.53;;;14.40;99.90;;;;;;5051499;28;20218;-76
2022/04/26 12:00:03;;;;;;;9.97;6.60;;;14.40;99.90;;;;;;5051410;28;20305;-76
2022/04/26 12:02:32;;;;;;;9.97;7.30;;;14.50;99.90;;;;;;5051573;28;20260;-77
2022/04/26 12:04:59;;;;;;;10.97;7.53;;;14.40;99.90;;;;;;5051282;28;20202;-77
2022/04/26 12:07:27;;;;;;;10.37;7.10;;;14.10;99.90;;;;;;5051212;28;20248;-77
2022/04/26 12:09:54;;;;;;;8.90;6.83;;;13.80;99.90;;;;;;5051522;28;20219;-76
2022/04/26 12:12:20;;;;;;;10.60;6.90;;;14.20;99.90;;;;;;5050882;28;20199;-76
2022/04/26 12:14:48;;;;;;;12.93;7.00;;;14.60;99.90;;;;;;5051123;28;20601;-76
2022/04/26 12:17:18;;;;;;;11.07;7.40;;;14.70;99.90;;;;;;5051354;28;20212;-76
2022/04/26 12:19:50;;;;;;;10.90;7.30;;;14.40;99.90;;;;;;5051202;28;20218;-76
2022/04/26 12:22:25;;;;;;;10.97;7.60;;;14.30;99.90;;;;;;5050980;28;20187;-76
2022/04/26 12:24:52;;;;;;;12.50;7.40;;;14.20;99.90;;;;;;5051338;28;20195;-77
2022/04/26 12:27:22;;;;;;;10.20;6.90;;;14.10;99.90;;;;;;5054229;28;20194;-77
2022/04/26 12:29:51;;;;;;;11.70;6.93;;;14.20;99.90;;;;;;5055215;28;20213;-78
2022/04/26 12:32:20;;;;;;;12.67;8.00;;;14.40;99.90;;;;;;5055260;28;20191;-76
2022/04/26 12:34:51;;;;;;;10.93;6.50;;;14.60;99.90;;;;;;5045825;28;20281;-76
2022/04/26 12:37:22;;;;;;;12.53;7.40;;;14.80;99.90;;;;;;5038393;28;20201;-77
2022/04/26 12:39:54;;;;;;;12.87;7.40;;;14.70;99.90;;;;;;5038483;28;20672;-80
2022/04/26 12:42:27;;;;;;;12.43;8.13;;;14.70;99.90;;;;;;5037976;28;20329;-82
2022/04/26 12:44:57;;;;;;;11.33;7.43;;;14.80;99.90;;;;;;5055552;28;20194;-80
2022/04/26 12:50:33;;;;;;;12.57;7.80;;;14.70;99.90;;;;;;5038136;28;20202;-84
2022/04/26 12:53:07;;;;;;;9.67;6.80;;;14.80;99.90;;;;;;5038098;28;20242;-77
2022/04/26 12:55:40;;;;;;;10.13;6.97;;;14.70;99.90;;;;;;5038112;28;20199;-80
2022/04/26 12:58:17;;;;;;;10.03;6.97;;;14.70;99.90;;;;;;5038373;28;20201;-77
2022/04/26 13:00:52;;;;;;;12.30;7.60;;;14.90;99.90;;;;;;5037858;28;20268;-75
2022/04/26 13:03:22;;;;;;;10.67;7.20;;;14.90;99.90;;;;;;5055952;28;20233;-78
2022/04/26 13:05:51;;;;;;;11.90;6.87;;;14.50;99.90;;;;;;5055945;28;20256;-76
2022/04/26 13:08:22;;;;;;;11.27;7.47;;;14.50;99.90;;;;;;5060486;28;20274;-81
2022/04/26 13:11:14;;;;;;;;;;;;;;;;;;;;;
2022/04/26 13:13:55;;;;;;;10.57;6.33;;;14.60;99.90;;;;;;5001004;28;20206;-83
2022/04/26 13:16:22;;;;;;;8.87;6.00;;;14.80;99.90;;;;;;5057224;28;20194;-85
2022/04/26 13:18:50;;;;;;;10.90;6.10;;;14.80;99.90;;;;;;5044385;28;20206;-83
2022/04/26 13:21:30;;;;;;;9.23;6.20;;;14.90;99.90;;;;;;5048165;28;20245;-84
2022/04/26 13:24:06;;;;;;;10.20;5.60;;;14.90;99.90;;;;;;5063074;28;20218;-86
2022/04/26 13:26:46;;;;;;;9.60;6.37;;;15.00;99.90;;;;;;5047187;28;20194;-82
2022/04/26 13:29:18;;;;;;;8.83;5.67;;;15.10;99.90;;;;;;5045062;28;20209;-81
2022/04/26 13:31:52;;;;;;;10.23;5.70;;;15.10;99.90;;;;;;5064298;28;20244;-84
2022/04/26 13:34:21;;;;;;;7.73;5.37;;;14.70;99.90;;;;;;5044021;28;20190;-81
2022/04/26 13:40:42;;;;;;;8.13;5.90;;;14.30;99.90;;;;;;5022961;28;20220;-80
2022/04/26 13:43:16;;;;;;;9.77;6.13;;;13.90;99.90;;;;;;5014690;28;20295;-84
2022/04/26 13:46:06;;;;;;;9.20;5.80;;;14.10;99.90;;;;;;5018050;28;20705;-82
2022/04/26 13:48:34;;;;;;;7.80;5.30;;;14.30;99.90;;;;;;5014145;28;20216;-81
2022/04/26 13:51:15;;;;;;;9.60;5.23;;;14.30;99.90;;;;;;5016228;28;20271;-83
2022/04/26 13:53:43;;;;;;;8.60;5.50;;;14.40;99.90;;;;;;5001664;28;20254;-80
2022/04/26 13:56:49;;;;;;;9.57;5.70;;;14.60;99.90;;;;;;5001999;28;20195;-82
2022/04/26 13:59:27;;;;;;;10.00;5.70;;;14.50;99.90;;;;;;4942487;29;20208;-82
2022/04/26 14:02:00;;;;;;;11.93;7.53;;;14.40;99.90;;;;;;4956665;29;20233;-84
2022/04/26 14:04:42;;;;;;;11.77;6.07;;;14.30;99.90;;;;;;4974594;29;20233;-85
2022/04/26 14:07:25;;;;;;;9.27;6.03;;;14.30;99.90;;;;;;4951805;29;20205;-82
2022/04/26 14:10:08;;;;;;;7.83;5.37;;;14.00;99.90;;;;;;4976640;29;20190;-82
2022/04/26 14:13:06;;;;;;;9.83;5.90;;;14.10;99.90;;;;;;4959736;29;20198;-83
2022/04/26 14:22:32;;;;;;;9.93;6.20;;;14.00;99.90;;;;;;4973805;29;20192;-81
2022/04/26 14:25:09;;;;;;;10.37;5.87;;;13.90;99.90;;;;;;4967735;29;20194;-85
2022/04/26 14:27:38;;;;;;;7.80;5.70;;;13.90;99.90;;;;;;4954074;29;20202;-75
2022/04/26 14:30:08;;;;;;;8.60;5.97;;;13.90;99.90;;;;;;4973889;28;20215;-77
2022/04/26 14:32:55;;;;;;;10.50;6.70;;;13.90;99.90;;;;;;5014361;28;20656;-76
2022/04/26 14:35:22;;;;;;;10.83;6.10;;;13.70;99.90;;;;;;4996596;28;20582;-86
2022/04/26 14:37:56;;;;;;;9.73;6.27;;;13.70;99.90;;;;;;4996614;28;20188;-85
2022/04/26 14:40:23;;;;;;;10.60;6.57;;;13.70;99.90;;;;;;4996748;28;20230;-75
2022/04/26 14:42:54;;;;;;;10.57;6.63;;;13.80;99.90;;;;;;4996410;28;20689;-75
2022/04/26 14:45:22;;;;;;;9.87;6.17;;;13.60;99.90;;;;;;4996394;28;20196;-84
2022/04/26 14:47:49;;;;;;;9.30;6.17;;;13.40;99.90;;;;;;5012726;28;20293;-76
2022/04/26 14:50:18;;;;;;;10.43;6.47;;;13.50;99.90;;;;;;5030980;28;20249;-78
2022/04/26 14:52:45;;;;;;;9.90;5.60;;;13.60;99.90;;;;;;5032298;28;20219;-77
2022/04/26 14:55:12;;;;;;;10.27;5.97;;;13.60;99.90;;;;;;5032399;28;20200;-76
2022/04/26 14:57:40;;;;;;;10.13;5.53;;;13.80;99.90;;;;;;5032241;28;20219;-75
2022/04/26 15:00:08;;;;;;;8.83;4.93;;;13.80;99.90;;;;;;5033467;28;20200;-82
2022/04/26 15:02:38;;;;;;;7.73;5.40;;;13.90;99.90;;;;;;5033536;28;20253;-76
2022/04/26 15:05:09;;;;;;;8.93;5.60;;;14.00;99.90;;;;;;5033424;28;20202;-76
2022/04/26 15:10:24;;;;;;;8.27;5.07;;;14.00;99.90;;;;;;5032170;28;20190;-75
2022/04/26 15:18:29;;;;;;;12.67;6.27;;;14.10;99.90;;;;;;5032361;28;20264;-75
2022/04/26 15:20:56;;;;;;;8.47;5.77;;;14.20;99.90;;;;;;5033467;28;20272;-74
2022/04/26 15:23:23;;;;;;;10.03;6.13;;;14.10;99.90;;;;;;5032151;28;20198;-74
2022/04/26 15:26:26;;;;;;;8.27;5.63;;;14.00;99.90;;;;;;5032142;28;20207;-74
2022/04/26 15:33:00;;;;;;;8.30;5.83;;;13.70;99.90;;;;;;4964786;28;20598;-80
2022/04/26 15:35:56;;;;;;;10.53;6.73;;;13.50;99.90;;;;;;4993211;28;20215;-79
2022/04/26 15:38:43;;;;;;;8.63;5.67;;;13.40;99.90;;;;;;4978839;28;20203;-83
2022/04/26 15:46:26;;;;;;;10.37;5.87;;;13.10;99.90;;;;;;4879134;29;20255;-78
2022/04/26 15:50:04;;;;;;;;;;;;;;;;;;;;;
2022/04/26 16:01:47;;;;;;;8.50;6.20;;;12.50;99.90;;;;;;4795915;29;20247;-83
2022/04/26 16:04:22;;;;;;;10.90;6.50;;;12.20;99.90;;;;;;4765242;29;20225;-78
2022/04/26 16:36:42;;;;;;;12.20;6.70;;;11.20;99.90;;;;;;4869062;29;20192;-81
2022/04/26 16:42:18;;;;;;;10.57;6.23;;;11.20;99.90;;;;;;4841065;29;20185;-82
2022/04/26 16:44:55;;;;;;;10.03;6.33;;;11.00;99.90;;;;;;4825266;29;20549;-75
2022/04/26 16:47:55;;;;;;;9.37;5.43;;;11.00;99.90;;;;;;4825379;29;20687;-83
2022/04/26 16:50:31;;;;;;;10.10;6.33;;;11.00;99.90;;;;;;4840505;29;20317;-77
2022/04/26 16:53:15;;;;;;;9.90;5.97;;;11.10;99.90;;;;;;4833037;29;20602;-77
2022/04/26 16:59:13;;;;;;;8.97;5.90;;;11.10;99.90;;;;;;4804436;29;20276;-76
2022/04/26 17:01:45;;;;;;;12.60;7.57;;;11.10;99.90;;;;;;4803996;29;20195;-76
2022/04/26 17:04:39;;;;;;;11.07;6.33;;;11.20;99.90;;;;;;4823821;29;20182;-82
2022/04/26 17:07:30;;;;;;;10.47;6.37;;;11.10;99.90;;;;;;4895911;29;20259;-81
2022/04/26 17:09:57;;;;;;;7.50;5.63;;;11.10;99.90;;;;;;4922243;29;20672;-76
2022/04/26 17:12:56;;;;;;;8.97;6.47;;;11.20;99.90;;;;;;4963814;28;20321;-76
2022/04/26 17:16:46;;;;;;;;;;;;;;;;;;;;;
2022/04/26 17:19:17;;;;;;;12.67;7.10;;;11.20;99.90;;;;;;4967420;28;20288;-76
2022/04/26 17:22:09;;;;;;;10.13;6.20;;;11.20;99.90;;;;;;4953030;28;20770;-76
2022/04/26 17:25:23;;;;;;;15.50;6.63;;;11.10;99.90;;;;;;4968567;28;20671;-82
2022/04/26 17:28:22;;;;;;;11.00;6.33;;;11.20;99.90;;;;;;4964613;28;20227;-75
2022/04/26 17:34:22;;;;;;;10.93;6.10;;;11.10;99.90;;;;;;4939162;29;20571;-75
2022/04/26 17:37:13;;;;;;;13.10;6.53;;;11.10;99.90;;;;;;4996953;28;20212;-76
2022/04/26 17:40:17;;;;;;;9.17;6.10;;;11.10;99.90;;;;;;4998399;28;20197;-82
2022/04/26 17:43:14;;;;;;;10.77;6.50;;;11.20;99.90;;;;;;4996527;28;20615;-81
2022/04/26 17:46:00;;;;;;;12.43;6.60;;;11.20;99.90;;;;;;4994034;28;20255;-76
2022/04/26 17:56:53;;;;;;;11.03;6.13;;;10.90;99.90;;;;;;5000355;28;20204;-77
2022/04/26 18:03:45;;;;;;;9.93;6.70;;;10.90;99.90;;;;;;5006217;28;20547;-81
2022/04/26 18:06:50;;;;;;;10.70;6.53;;;10.90;99.90;;;;;;4941127;28;20202;-75
2022/04/26 18:23:18;;;;;;;9.63;6.50;;;11.00;99.90;;;;;;4898220;29;20192;-81
2022/04/26 18:26:24;;;;;;;12.37;6.97;;;11.00;99.90;;;;;;4893587;29;20606;-75
2022/04/26 18:29:09;;;;;;;10.60;6.63;;;11.00;99.90;;;;;;4893735;29;20204;-75
2022/04/26 18:31:37;;;;;;;11.90;6.50;;;10.90;99.90;;;;;;4900969;29;20207;-87
2022/04/26 18:34:20;;;;;;;11.17;6.60;;;11.00;99.90;;;;;;4925898;29;20211;-75
2022/04/26 18:36:56;;;;;;;9.67;6.20;;;11.00;99.90;;;;;;4920105;29;20211;-75
2022/04/26 18:39:44;;;;;;;;;;;;;;;;;;;;;
2022/04/26 18:46:27;;;;;;;12.87;7.10;;;11.00;99.90;;;;;;4938628;29;20258;-76
2022/04/26 18:49:28;;;;;;;10.70;6.37;;;11.00;99.90;;;;;;4954496;29;20201;-75
2022/04/26 18:51:58;;;;;;;10.07;6.20;;;11.00;99.90;;;;;;4948244;29;20233;-76
2022/04/26 18:54:50;;;;;;;9.90;6.27;;;10.90;99.90;;;;;;4928359;29;20739;-85
2022/04/26 18:57:46;;;;;;;12.83;6.83;;;11.00;99.90;;;;;;4952349;28;20232;-77
2022/04/26 19:00:36;;;;;;;10.53;6.83;;;11.00;99.90;;;;;;5046532;28;20193;-78
2022/04/26 19:03:20;;;;;;;10.53;6.60;;;11.00;99.90;;;;;;4996502;28;20226;-75
2022/04/26 19:05:56;;;;;;;11.80;6.60;;;11.00;99.90;;;;;;5029833;28;20232;-75
2022/04/26 19:08:29;;;;;;;12.40;7.23;;;10.90;99.90;;;;;;5029977;28;20199;-80
2022/04/26 19:14:17;;;;;;;9.27;6.40;;;10.90;99.90;;;;;;5037426;28;20228;-75
2022/04/26 19:16:54;;;;;;;11.80;6.30;;;10.90;99.90;;;;;;5014944;28;20192;-85
2022/04/26 19:20:12;;;;;;;13.10;6.57;;;11.00;99.90;;;;;;5050483;28;20219;-83
2022/04/26 19:22:27;;;;;;;10.63;7.20;;;10.90;99.90;;;;;;5025222;28;20203;-75
2022/04/26 19:25:41;;;;;;;10.43;6.70;;;10.90;99.90;;;;;;5033833;28;20596;-79
2022/04/26 19:28:14;;;;;;;9.83;6.13;;;10.90;99.90;;;;;;5058255;28;20203;-78
2022/04/26 19:31:02;;;;;;;14.40;7.77;;;10.90;99.90;;;;;;5033706;28;20290;-76
2022/04/26 19:33:58;;;;;;;16.50;7.93;;;10.90;99.90;;;;;;5019430;28;20204;-81
2022/04/26 19:36:25;;;;;;;20.53;8.77;;;10.90;99.90;;;;;;5032485;28;20541;-80
2022/04/26 19:38:58;;;;;;;18.27;9.03;;;10.90;99.90;;;;;;5049171;28;20231;-82
2022/04/26 19:41:27;;;;;;;20.93;10.10;;;10.90;99.90;;;;;;5032480;28;20194;-77
2022/04/26 19:43:55;;;;;;;24.40;11.40;;;10.90;99.90;;;;;;5033103;28;20231;-81
2022/04/26 19:46:25;;;;;;;22.23;12.13;;;10.90;99.90;;;;;;5050450;28;20191;-79
2022/04/26 19:49:01;;;;;;;23.50;12.73;;;10.90;99.90;;;;;;5032307;28;20196;-84
2022/04/26 19:51:34;;;;;;;24.80;13.37;;;10.80;99.90;;;;;;5020010;28;20215;-85
2022/04/26 19:54:16;;;;;;;25.33;13.27;;;10.70;99.90;;;;;;5034456;28;20689;-83
2022/04/26 19:59:38;;;;;;;26.03;14.30;;;10.70;99.90;;;;;;4997355;28;20223;-85
2022/04/26 20:02:30;;;;;;;25.73;14.10;;;10.70;99.90;;;;;;4996214;28;20291;-83
2022/04/26 20:04:57;;;;;;;24.13;14.57;;;10.60;99.90;;;;;;5004707;28;20209;-76
2022/04/26 20:07:33;;;;;;;23.67;14.43;;;10.60;99.90;;;;;;4992289;28;20224;-82
2022/04/26 20:10:00;;;;;;;23.43;13.87;;;10.60;99.90;;;;;;4991669;28;20704;-74
2022/04/26 20:12:28;;;;;;;25.03;14.40;;;10.60;99.90;;;;;;4991905;28;20259;-74
2022/04/26 20:14:59;;;;;;;24.27;14.73;;;10.60;99.90;;;;;;4991652;28;20248;-81
2022/04/26 20:17:29;;;;;;;21.90;13.50;;;10.50;99.90;;;;;;4991899;28;20705;-82
2022/04/26 20:19:59;;;;;;;26.27;14.53;;;10.60;99.90;;;;;;4991823;28;20205;-75
2022/04/26 20:22:27;;;;;;;25.60;14.20;;;10.60;99.90;;;;;;4991732;28;20204;-80
2022/04/26 20:24:54;;;;;;;27.50;15.07;;;10.60;99.90;;;;;;4991508;28;20235;-78
2022/04/26 20:30:17;;;;;;;25.47;14.10;;;10.60;99.90;;;;;;4991569;28;20201;-79
2022/04/26 20:32:51;;;;;;;24.93;14.97;;;10.60;99.90;;;;;;4991566;28;20204;-78
2022/04/26 20:35:35;;;;;;;27.83;15.53;;;10.50;99.90;;;;;;4990845;28;20610;-76
2022/04/26 20:38:35;;;;;;;26.10;16.70;;;10.60;99.90;;;;;;5011831;28;20618;-80
2022/04/26 20:41:19;;;;;;;27.63;16.80;;;10.50;99.90;;;;;;5013335;28;20223;-74
2022/04/26 20:44:12;;;;;;;31.90;17.83;;;10.50;99.90;;;;;;5011943;28;20556;-81
2022/04/26 20:50:56;;;;;;;31.67;19.17;;;10.40;99.90;;;;;;4915650;28;20188;-79
2022/04/26 20:54:12;;;;;;;33.40;19.67;;;10.30;99.90;;;;;;4904498;29;20233;-78
2022/04/26 20:57:04;;;;;;;31.77;19.03;;;10.30;99.90;;;;;;4915208;29;20254;-76
2022/04/26 20:59:38;;;;;;;31.83;19.63;;;10.20;99.90;;;;;;4917578;29;20222;-77
2022/04/26 21:02:05;;;;;;;34.60;19.70;;;10.20;99.90;;;;;;4933466;29;20235;-73
2022/04/26 21:04:38;;;;;;;37.27;21.37;;;10.20;99.90;;;;;;4918587;29;20278;-75
2022/04/26 21:07:16;;;;;;;36.90;20.87;;;10.20;99.90;;;;;;4921291;29;20199;-76
2022/04/26 21:29:55;;;;;;;40.43;22.07;;;10.20;99.90;;;;;;4936882;28;20258;-80
2022/04/26 21:37:14;;;;;;;38.87;22.40;;;10.10;99.90;;;;;;4936580;29;20253;-74
2022/04/26 21:40:10;;;;;;;40.03;22.67;;;10.20;99.90;;;;;;4890318;29;20226;-81
2022/04/26 21:43:46;;;;;;;41.03;22.67;;;10.10;99.90;;;;;;4936239;29;20584;-74
2022/04/26 22:03:25;;;;;;;34.63;19.97;;;10.20;99.90;;;;;;4806418;29;20207;-79
2022/04/26 23:02:55;;;;;;;35.77;20.93;;;10.20;99.90;;;;;;5103215;27;20534;-76
2022/04/26 23:05:23;;;;;;;36.70;19.97;;;9.90;99.90;;;;;;5069663;28;20233;-74
2022/04/26 23:07:49;;;;;;;33.57;19.70;;;9.90;99.90;;;;;;5103950;28;20221;-76
2022/04/26 23:10:17;;;;;;;34.77;20.50;;;9.90;99.90;;;;;;5069658;28;20248;-76
2022/04/26 23:12:44;;;;;;;35.17;20.37;;;9.90;99.90;;;;;;5103519;28;20198;-75
2022/04/26 23:15:14;;;;;;;32.67;19.10;;;9.80;99.90;;;;;;5053155;28;20190;-75
2022/04/26 23:17:41;;;;;;;30.03;19.03;;;9.80;99.90;;;;;;5052963;28;20248;-76
2022/04/26 23:20:09;;;;;;;29.20;18.27;;;9.90;99.90;;;;;;5034195;28;20205;-74
2022/04/26 23:22:36;;;;;;;29.60;18.63;;;9.90;99.90;;;;;;5093488;28;20238;-75
2022/04/26 23:25:03;;;;;;;31.47;18.03;;;10.00;99.90;;;;;;5069872;28;20193;-74
2022/04/26 23:27:30;;;;;;;28.57;18.27;;;10.00;99.90;;;;;;5068905;28;20248;-75
2022/04/26 23:30:00;;;;;;;28.90;17.57;;;10.00;99.90;;;;;;5068864;28;20240;-74
2022/04/26 23:32:27;;;;;;;29.27;17.53;;;10.00;99.90;;;;;;5068661;28;20218;-74
2022/04/26 23:37:39;;;;;;;28.63;17.40;;;9.90;99.90;;;;;;5102731;28;20205;-73
2022/04/26 23:40:07;;;;;;;25.30;16.60;;;10.00;99.90;;;;;;5069793;28;20222;-74
2022/04/26 23:42:33;;;;;;;29.20;17.13;;;9.90;99.90;;;;;;5068495;28;20198;-75
2022/04/26 23:45:01;;;;;;;26.80;16.80;;;9.90;99.90;;;;;;5068229;28;20202;-74
2022/04/26 23:47:31;;;;;;;28.50;16.77;;;9.90;99.90;;;;;;5046044;28;20199;-73
2022/04/26 23:49:59;;;;;;;27.70;16.07;;;9.90;99.90;;;;;;5087502;28;20580;-73
2022/04/26 23:55:11;;;;;;;27.83;16.27;;;9.80;99.90;;;;;;5049084;28;20187;-71
2022/04/26 23:57:38;;;;;;;29.23;16.63;;;9.80;99.90;;;;;;5048172;28;20236;-72
